Station Historical Data
Daily Summary for December 23, 2017 Units:  English    Metric   Both
« Previous Day
Next Day »
Daily Weekly Monthly Yearly Custom
  High: Low: Average:
Temperature: 32.0 °F 26.7 °F 30.5 °F
Dew Point: 29.9 °F 23.6 °F 28.3 °F
Humidity: 92% 88% 92%
Wind Speed: 5.0mph 0.0mph 1.5mph
Wind Gust: 8.0mph - -
Wind- - ESE
Pressure: 30.15 in 29.83 in -
Precipitation: 0.00 in    
Historical Graphs
 
 
Tabular Data for December 23, 2017
Time Temperature Dew Point Pressure Wind Wind Speed Wind Gust Humidity Rainfall Rate (Hourly)
00:04 31.1 °F 28.8 °F 30.00 in NE 3.0 mph 8.0 mph 91% 0.00 in
00:09 31.2 °F 28.9 °F 30.00 in NNE 2.0 mph 5.0 mph 91% 0.00 in
00:14 31.2 °F 28.9 °F 30.00 in NNE 3.0 mph 6.0 mph 91% 0.00 in
00:19 31.1 °F 28.8 °F 30.00 in NNE 2.0 mph 6.0 mph 91% 0.00 in
00:24 31.1 °F 28.8 °F 30.00 in NNE 3.0 mph 4.0 mph 91% 0.00 in
00:34 31.0 °F 28.7 °F 30.00 in NNE 3.0 mph 5.0 mph 91% 0.00 in
00:39 30.9 °F 28.6 °F 30.00 in NNE 2.0 mph 4.0 mph 91% 0.00 in
00:44 30.9 °F 28.6 °F 29.99 in NE 2.0 mph 5.0 mph 91% 0.00 in
00:49 30.9 °F 28.6 °F 29.99 in NE 2.0 mph 5.0 mph 91% 0.00 in
00:54 30.9 °F 28.6 °F 30.00 in NE 2.0 mph 5.0 mph 91% 0.00 in
00:59 30.9 °F 28.6 °F 29.99 in NE 2.0 mph 5.0 mph 91% 0.00 in
01:04 30.9 °F 28.6 °F 29.99 in NE 1.0 mph 4.0 mph 91% 0.00 in
01:09 30.9 °F 28.6 °F 29.99 in NE 2.0 mph 4.0 mph 91% 0.00 in
01:14 31.0 °F 28.7 °F 29.99 in NE 1.0 mph 3.0 mph 91% 0.00 in
01:19 31.0 °F 28.7 °F 29.99 in NE 3.0 mph 3.0 mph 91% 0.00 in
01:24 31.0 °F 28.7 °F 29.98 in East 2.0 mph 6.0 mph 91% 0.00 in
01:29 31.0 °F 28.7 °F 29.98 in ENE 4.0 mph 5.0 mph 91% 0.00 in
01:34 31.0 °F 28.7 °F 29.97 in ENE 3.0 mph 7.0 mph 91% 0.00 in
01:39 31.0 °F 28.7 °F 29.97 in NE 2.0 mph 5.0 mph 91% 0.00 in
01:44 31.0 °F 28.7 °F 29.97 in NE 2.0 mph 4.0 mph 91% 0.00 in
01:49 31.0 °F 28.7 °F 29.97 in NE 2.0 mph 4.0 mph 91% 0.00 in
01:54 31.0 °F 28.7 °F 29.97 in NE 3.0 mph 5.0 mph 91% 0.00 in
01:59 31.0 °F 28.7 °F 29.96 in NE 2.0 mph 5.0 mph 91% 0.00 in
02:04 31.0 °F 28.7 °F 29.96 in NE 2.0 mph 4.0 mph 91% 0.00 in
02:09 31.0 °F 28.7 °F 29.97 in NE 2.0 mph 4.0 mph 91% 0.00 in
02:14 31.0 °F 28.7 °F 29.97 in NE 2.0 mph 4.0 mph 91% 0.00 in
02:19 31.0 °F 28.7 °F 29.97 in Calm   3.0 mph 91% 0.00 in
02:24 31.0 °F 28.7 °F 29.97 in Calm     91% 0.00 in
02:29 31.1 °F 28.8 °F 29.97 in Calm     91% 0.00 in
02:34 31.1 °F 28.8 °F 29.97 in Calm   4.0 mph 91% 0.00 in
02:39 31.0 °F 28.7 °F 29.97 in NE 1.0 mph 4.0 mph 91% 0.00 in
02:44 31.0 °F 28.7 °F 29.97 in NE 1.0 mph 3.0 mph 91% 0.00 in
02:49 31.0 °F 28.7 °F 29.97 in NE 1.0 mph 3.0 mph 91% 0.00 in
02:54 30.9 °F 28.6 °F 29.97 in NE 3.0 mph 4.0 mph 91% 0.00 in
02:59 30.8 °F 28.5 °F 29.97 in NE 3.0 mph 4.0 mph 91% 0.00 in
03:04 30.8 °F 28.5 °F 29.97 in North 2.0 mph 5.0 mph 91% 0.00 in
03:09 30.7 °F 28.4 °F 29.97 in North 3.0 mph 5.0 mph 91% 0.00 in
03:14 30.6 °F 28.3 °F 29.97 in North 5.0 mph 6.0 mph 91% 0.00 in
03:19 30.6 °F 28.3 °F 29.96 in North 2.0 mph 5.0 mph 91% 0.00 in
03:24 30.5 °F 28.2 °F 29.96 in NNE 2.0 mph 4.0 mph 91% 0.00 in
03:29 30.5 °F 28.2 °F 29.96 in North 2.0 mph 5.0 mph 91% 0.00 in
03:34 30.6 °F 28.3 °F 29.96 in NNE 3.0 mph 6.0 mph 91% 0.00 in
03:39 30.6 °F 28.3 °F 29.96 in NNE 3.0 mph 6.0 mph 91% 0.00 in
03:44 30.6 °F 28.3 °F 29.96 in North 3.0 mph 4.0 mph 91% 0.00 in
03:49 30.5 °F 28.2 °F 29.96 in North 3.0 mph 5.0 mph 91% 0.00 in
03:54 30.5 °F 28.2 °F 29.96 in NE 3.0 mph 6.0 mph 91% 0.00 in
03:59 30.6 °F 28.3 °F 29.95 in NNE 4.0 mph 6.0 mph 91% 0.00 in
04:04 30.6 °F 28.3 °F 29.95 in NNE 3.0 mph 5.0 mph 91% 0.00 in
04:14 30.6 °F 28.3 °F 29.95 in NE 3.0 mph 8.0 mph 91% 0.00 in
04:19 30.7 °F 28.4 °F 29.95 in NE 3.0 mph 8.0 mph 91% 0.00 in
04:24 30.7 °F 28.4 °F 29.95 in NE 2.0 mph 5.0 mph 91% 0.00 in
04:29 30.7 °F 28.4 °F 29.95 in NE 3.0 mph 6.0 mph 91% 0.00 in
04:34 30.8 °F 28.5 °F 29.94 in NE 3.0 mph 6.0 mph 91% 0.00 in
04:39 30.8 °F 28.5 °F 29.94 in NE 3.0 mph 7.0 mph 91% 0.00 in
04:44 30.8 °F 28.8 °F 29.93 in ENE 5.0 mph 7.0 mph 92% 0.00 in
04:49 30.8 °F 28.8 °F 29.93 in ENE 3.0 mph 7.0 mph 92% 0.00 in
04:54 30.9 °F 28.6 °F 29.92 in ENE 3.0 mph 7.0 mph 91% 0.00 in
04:59 30.9 °F 28.6 °F 29.92 in ENE 3.0 mph 7.0 mph 91% 0.00 in
05:04 30.9 °F 28.6 °F 29.91 in ENE 2.0 mph 8.0 mph 91% 0.00 in
05:14 31.1 °F 29.0 °F 29.92 in NE 2.0 mph 7.0 mph 92% 0.00 in
05:19 31.1 °F 29.0 °F 29.92 in ENE 2.0 mph 7.0 mph 92% 0.00 in
05:24 31.1 °F 29.0 °F 29.92 in Calm   8.0 mph 92% 0.00 in
05:29 31.2 °F 29.1 °F 29.92 in ENE 2.0 mph 3.0 mph 92% 0.00 in
05:34 31.3 °F 29.2 °F 29.93 in ENE 2.0 mph 4.0 mph 92% 0.00 in
05:39 31.4 °F 29.3 °F 29.93 in NE 2.0 mph 4.0 mph 92% 0.00 in
05:44 31.4 °F 29.3 °F 29.93 in NE 3.0 mph 4.0 mph 92% 0.00 in
05:49 31.4 °F 29.3 °F 29.92 in Calm   5.0 mph 92% 0.00 in
05:54 31.5 °F 29.4 °F 29.93 in NE 2.0 mph 5.0 mph 92% 0.00 in
05:59 31.5 °F 29.4 °F 29.93 in NE 2.0 mph 5.0 mph 92% 0.00 in
06:04 31.6 °F 29.5 °F 29.93 in NE 2.0 mph 4.0 mph 92% 0.00 in
06:09 31.6 °F 29.5 °F 29.92 in NE 2.0 mph 5.0 mph 92% 0.00 in
06:14 31.7 °F 29.6 °F 29.92 in NE 4.0 mph 5.0 mph 92% 0.00 in
06:19 31.8 °F 29.7 °F 29.91 in Calm   5.0 mph 92% 0.00 in
06:24 31.8 °F 29.7 °F 29.91 in NE 2.0 mph 5.0 mph 92% 0.00 in
06:34 31.8 °F 29.7 °F 29.90 in NE 2.0 mph 7.0 mph 92% 0.00 in
06:39 31.9 °F 29.8 °F 29.90 in ENE 2.0 mph 7.0 mph 92% 0.00 in
06:44 31.9 °F 29.8 °F 29.90 in ENE 2.0 mph 4.0 mph 92% 0.01 in
06:49 31.9 °F 29.8 °F 29.90 in ENE 4.0 mph 5.0 mph 92% 0.02 in
06:54 32.0 °F 29.9 °F 29.90 in ENE 1.0 mph 4.0 mph 92% 0.02 in
06:59 32.0 °F 29.9 °F 29.89 in ENE 2.0 mph 3.0 mph 92% 0.03 in
07:04 32.0 °F 29.9 °F 29.89 in NE 2.0 mph 4.0 mph 92% 0.03 in
07:14 31.9 °F 29.8 °F 29.88 in NE 3.0 mph 7.0 mph 92% 0.04 in
07:19 32.0 °F 29.9 °F 29.88 in NE 1.0 mph 5.0 mph 92% 0.04 in
07:24 31.9 °F 29.8 °F 29.88 in ENE 5.0 mph 5.0 mph 92% 0.04 in
07:29 31.9 °F 29.8 °F 29.87 in NE 2.0 mph 5.0 mph 92% 0.05 in
07:34 31.8 °F 29.7 °F 29.87 in NE 2.0 mph 5.0 mph 92% 0.05 in
07:39 31.7 °F 29.6 °F 29.87 in North 2.0 mph 5.0 mph 92% 0.05 in
07:44 31.7 °F 29.6 °F 29.87 in NNE 3.0 mph 5.0 mph 92% 0.05 in
07:49 31.7 °F 29.6 °F 29.88 in NNE 2.0 mph 4.0 mph 92% 0.04 in
07:54 31.7 °F 29.6 °F 29.88 in North 2.0 mph 4.0 mph 92% 0.04 in
07:59 31.6 °F 29.5 °F 29.87 in North 2.0 mph 4.0 mph 92% 0.03 in
08:04 31.6 °F 29.5 °F 29.87 in North 2.0 mph 4.0 mph 92% 0.04 in
08:09 31.6 °F 29.5 °F 29.87 in NNE 3.0 mph 4.0 mph 92% 0.03 in
08:14 31.5 °F 29.4 °F 29.87 in NNE 2.0 mph 4.0 mph 92% 0.03 in
08:19 31.5 °F 29.4 °F 29.87 in NNE 2.0 mph 4.0 mph 92% 0.04 in
08:24 31.5 °F 29.4 °F 29.88 in NNE 1.0 mph 4.0 mph 92% 0.04 in
08:29 31.4 °F 29.3 °F 29.87 in NNE 2.0 mph 4.0 mph 92% 0.04 in
08:34 31.4 °F 29.3 °F 29.87 in North 3.0 mph 3.0 mph 92% 0.04 in
08:39 31.5 °F 29.4 °F 29.87 in North 2.0 mph 4.0 mph 92% 0.05 in
08:44 31.5 °F 29.4 °F 29.87 in NNE 3.0 mph 5.0 mph 92% 0.04 in
08:49 31.4 °F 29.3 °F 29.87 in North 2.0 mph 5.0 mph 92% 0.05 in
08:54 31.4 °F 29.3 °F 29.86 in NNE 3.0 mph 5.0 mph 92% 0.05 in
08:59 31.4 °F 29.3 °F 29.87 in NNE 3.0 mph 5.0 mph 92% 0.05 in
09:04 31.4 °F 29.3 °F 29.86 in NNE 3.0 mph 5.0 mph 92% 0.05 in
09:09 31.4 °F 29.3 °F 29.86 in NNE 2.0 mph 5.0 mph 92% 0.05 in
09:14 31.4 °F 29.3 °F 29.86 in NNE 3.0 mph 5.0 mph 92% 0.05 in
09:19 31.3 °F 29.2 °F 29.85 in NNE 3.0 mph 5.0 mph 92% 0.04 in
09:24 31.3 °F 29.2 °F 29.86 in NNE 3.0 mph 5.0 mph 92% 0.05 in
09:29 31.3 °F 29.2 °F 29.86 in NNE 3.0 mph 5.0 mph 92% 0.04 in
09:34 31.3 °F 29.2 °F 29.87 in NNE 3.0 mph 4.0 mph 92% 0.04 in
09:39 31.2 °F 29.1 °F 29.86 in NNE 3.0 mph 5.0 mph 92% 0.03 in
09:44 31.2 °F 29.1 °F 29.87 in NNE 3.0 mph 5.0 mph 92% 0.03 in
09:49 31.2 °F 29.1 °F 29.87 in North 2.0 mph 6.0 mph 92% 0.02 in
09:59 31.2 °F 29.1 °F 29.87 in NNE 3.0 mph 6.0 mph 92% 0.03 in
10:04 31.2 °F 29.1 °F 29.87 in NNW 5.0 mph 5.0 mph 92% 0.02 in
10:09 31.1 °F 29.0 °F 29.87 in NNE 3.0 mph 5.0 mph 92% 0.02 in
10:14 31.1 °F 29.0 °F 29.88 in NNE 1.0 mph 5.0 mph 92% 0.02 in
10:19 31.1 °F 29.0 °F 29.87 in NNE 4.0 mph 5.0 mph 92% 0.02 in
10:24 31.0 °F 28.9 °F 29.86 in NNE 3.0 mph 5.0 mph 92% 0.01 in
10:29 30.9 °F 28.9 °F 29.86 in NNE 3.0 mph 5.0 mph 92% 0.01 in
10:34 30.9 °F 28.9 °F 29.87 in North 2.0 mph 5.0 mph 92% 0.01 in
10:39 30.9 °F 28.9 °F 29.87 in NNE 2.0 mph 4.0 mph 92% 0.01 in
10:44 30.8 °F 28.8 °F 29.86 in NNE 1.0 mph 3.0 mph 92% 0.01 in
10:49 30.8 °F 28.8 °F 29.86 in NE 1.0 mph 3.0 mph 92% 0.02 in
10:54 30.8 °F 28.8 °F 29.86 in NE 2.0 mph 3.0 mph 92% 0.01 in
10:59 30.8 °F 28.8 °F 29.86 in NNE 2.0 mph 3.0 mph 92% 0.01 in
11:04 30.8 °F 28.8 °F 29.85 in NE 2.0 mph 4.0 mph 92% 0.01 in
11:09 30.7 °F 28.7 °F 29.85 in NNE 2.0 mph 4.0 mph 92% 0.01 in
11:14 30.8 °F 28.8 °F 29.85 in NNE 2.0 mph 3.0 mph 92% 0.01 in
11:19 30.7 °F 28.7 °F 29.85 in NNE 2.0 mph 4.0 mph 92% 0.01 in
11:24 30.8 °F 28.8 °F 29.84 in NNE 2.0 mph 4.0 mph 92% 0.01 in
11:29 30.7 °F 28.7 °F 29.85 in North 2.0 mph 4.0 mph 92% 0.01 in
11:34 30.7 °F 28.7 °F 29.84 in NNE 2.0 mph 5.0 mph 92% 0.01 in
11:39 30.6 °F 28.6 °F 29.85 in North 2.0 mph 5.0 mph 92% 0.01 in
11:44 30.6 °F 28.6 °F 29.84 in North 4.0 mph 4.0 mph 92% 0.01 in
11:49 30.5 °F 28.5 °F 29.84 in NNW 2.0 mph 4.0 mph 92% 0.00 in
11:54 30.4 °F 28.4 °F 29.83 in North 3.0 mph 5.0 mph 92% 0.00 in
11:59 30.3 °F 28.3 °F 29.83 in NNE 1.0 mph 4.0 mph 92% 0.00 in
12:04 30.3 °F 28.3 °F 29.83 in NNE 2.0 mph 4.0 mph 92% 0.00 in
12:09 30.2 °F 28.2 °F 29.83 in North 2.0 mph 4.0 mph 92% 0.00 in
12:14 30.3 °F 28.3 °F 29.83 in North 1.0 mph 3.0 mph 92% 0.00 in
12:19 30.3 °F 28.3 °F 29.83 in North 1.0 mph 2.0 mph 92% 0.00 in
12:24 30.3 °F 28.3 °F 29.83 in North 1.0 mph 3.0 mph 92% 0.00 in
12:29 30.4 °F 28.4 °F 29.84 in NNW 1.0 mph 3.0 mph 92% 0.00 in
12:34 30.4 °F 28.4 °F 29.83 in North 1.0 mph 2.0 mph 92% 0.00 in
12:39 30.3 °F 28.3 °F 29.84 in Calm   3.0 mph 92% 0.00 in
12:44 30.4 °F 28.4 °F 29.83 in Calm   3.0 mph 92% 0.00 in
12:49 30.4 °F 28.4 °F 29.84 in Calm   3.0 mph 92% 0.00 in
12:54 30.5 °F 28.5 °F 29.85 in NNW 1.0 mph 3.0 mph 92% 0.00 in
12:59 30.5 °F 28.5 °F 29.85 in NNW 1.0 mph 3.0 mph 92% 0.00 in
13:00 30.5 °F 28.5 °F 29.85 in NW 1.0 mph 3.0 mph 92% 0.00 in
13:09 30.5 °F 28.5 °F 29.85 in North 2.0 mph 4.0 mph 92% 0.00 in
13:14 30.4 °F 28.4 °F 29.85 in NNW 1.0 mph 4.0 mph 92% 0.00 in
13:19 30.4 °F 28.4 °F 29.85 in Calm   2.0 mph 92% 0.00 in
13:24 30.4 °F 28.4 °F 29.85 in Calm   1.0 mph 92% 0.00 in
13:29 30.5 °F 28.5 °F 29.85 in Calm     92% 0.00 in
13:34 30.6 °F 28.6 °F 29.85 in Calm     92% 0.00 in
13:39 30.6 °F 28.6 °F 29.85 in Calm     92% 0.00 in
13:44 30.8 °F 28.8 °F 29.86 in Calm   1.0 mph 92% 0.00 in
13:49 30.8 °F 28.8 °F 29.86 in Calm   1.0 mph 92% 0.00 in
13:54 30.7 °F 28.7 °F 29.86 in Calm     92% 0.00 in
13:59 30.6 °F 28.6 °F 29.85 in Calm     92% 0.00 in
14:04 30.7 °F 28.7 °F 29.86 in Calm     92% 0.00 in
14:09 30.8 °F 28.8 °F 29.86 in Calm     92% 0.00 in
14:14 31.0 °F 28.9 °F 29.86 in Calm     92% 0.00 in
14:19 31.2 °F 29.1 °F 29.86 in Calm     92% 0.00 in
14:24 31.4 °F 29.3 °F 29.86 in Calm     92% 0.00 in
14:29 31.3 °F 29.2 °F 29.86 in Calm     92% 0.00 in
14:34 31.5 °F 29.4 °F 29.86 in Calm     92% 0.00 in
14:39 31.7 °F 29.6 °F 29.86 in Calm     92% 0.00 in
14:44 31.8 °F 29.7 °F 29.87 in Calm     92% 0.00 in
14:49 31.8 °F 29.7 °F 29.87 in Calm     92% 0.00 in
14:54 31.8 °F 29.7 °F 29.87 in Calm     92% 0.00 in
14:59 31.7 °F 29.6 °F 29.88 in Calm     92% 0.00 in
15:04 31.7 °F 29.6 °F 29.88 in Calm     92% 0.00 in
15:09 31.6 °F 29.5 °F 29.89 in Calm     92% 0.01 in
15:14 31.5 °F 29.4 °F 29.89 in Calm     92% 0.01 in
15:19 31.4 °F 29.3 °F 29.89 in Calm     92% 0.01 in
15:24 31.3 °F 29.2 °F 29.89 in Calm     92% 0.01 in
15:29 31.2 °F 29.1 °F 29.89 in Calm     92% 0.01 in
15:34 31.1 °F 29.0 °F 29.89 in Calm     92% 0.01 in
15:39 31.2 °F 29.1 °F 29.88 in Calm     92% 0.01 in
15:44 31.2 °F 29.1 °F 29.88 in Calm     92% 0.01 in
15:49 31.2 °F 29.1 °F 29.88 in Calm     92% 0.01 in
15:54 31.2 °F 29.1 °F 29.89 in Calm     92% 0.01 in
15:59 31.3 °F 29.2 °F 29.89 in Calm     92% 0.01 in
16:04 31.2 °F 29.1 °F 29.90 in Calm     92% 0.01 in
16:09 31.3 °F 29.2 °F 29.90 in Calm     92% 0.00 in
16:14 31.2 °F 29.1 °F 29.91 in Calm     92% 0.00 in
16:19 31.2 °F 29.1 °F 29.91 in Calm     92% 0.00 in
16:24 31.2 °F 29.1 °F 29.91 in Calm     92% 0.00 in
16:29 31.2 °F 29.1 °F 29.91 in Calm     92% 0.00 in
16:34 31.1 °F 29.0 °F 29.91 in Calm     92% 0.00 in
16:39 31.1 °F 29.0 °F 29.91 in Calm     92% 0.00 in
16:44 31.1 °F 29.0 °F 29.92 in Calm     92% 0.00 in
16:49 31.1 °F 29.0 °F 29.92 in Calm     92% 0.00 in
16:54 31.1 °F 29.0 °F 29.92 in Calm     92% 0.00 in
16:59 31.0 °F 28.9 °F 29.93 in Calm     92% 0.00 in
17:09 31.0 °F 28.9 °F 29.93 in Calm     92% 0.00 in
17:14 31.0 °F 28.9 °F 29.94 in Calm     92% 0.00 in
17:19 31.0 °F 28.9 °F 29.94 in Calm     92% 0.00 in
17:24 31.0 °F 28.9 °F 29.94 in Calm     92% 0.00 in
17:29 31.0 °F 28.9 °F 29.95 in Calm     92% 0.00 in
17:34 31.0 °F 28.9 °F 29.95 in Calm     92% 0.00 in
17:44 31.1 °F 29.0 °F 29.96 in Calm     92% 0.00 in
17:49 31.1 °F 29.0 °F 29.96 in Calm     92% 0.00 in
17:54 31.2 °F 29.1 °F 29.96 in Calm     92% 0.00 in
17:59 31.2 °F 29.1 °F 29.96 in Calm     92% 0.00 in
18:04 31.2 °F 29.1 °F 29.96 in Calm     92% 0.00 in
18:14 31.3 °F 29.2 °F 29.97 in Calm     92% 0.00 in
18:19 31.4 °F 29.3 °F 29.97 in Calm     92% 0.00 in
18:24 31.4 °F 29.3 °F 29.98 in Calm     92% 0.00 in
18:29 31.4 °F 29.3 °F 29.98 in Calm     92% 0.00 in
18:34 31.4 °F 29.3 °F 29.99 in Calm     92% 0.00 in
18:39 31.4 °F 29.3 °F 29.99 in Calm     92% 0.00 in
18:44 31.4 °F 29.3 °F 30.00 in Calm     92% 0.00 in
18:49 31.4 °F 29.1 °F 30.00 in Calm     91% 0.00 in
18:54 31.2 °F 28.9 °F 30.01 in Calm     91% 0.00 in
18:59 31.0 °F 28.7 °F 30.01 in Calm     91% 0.00 in
19:04 30.8 °F 28.5 °F 30.02 in Calm     91% 0.00 in
19:09 30.5 °F 28.2 °F 30.02 in Calm     91% 0.00 in
19:14 30.3 °F 28.0 °F 30.02 in Calm     91% 0.00 in
19:19 30.1 °F 27.8 °F 30.03 in Calm     91% 0.00 in
19:29 29.8 °F 27.5 °F 30.03 in Calm     91% 0.00 in
19:34 29.6 °F 27.3 °F 30.03 in Calm     91% 0.00 in
19:44 29.2 °F 26.9 °F 30.04 in Calm     91% 0.00 in
19:49 29.0 °F 26.7 °F 30.05 in Calm     91% 0.00 in
19:54 28.7 °F 26.4 °F 30.05 in Calm     91% 0.00 in
19:59 28.4 °F 26.1 °F 30.06 in Calm     91% 0.00 in
20:04 28.2 °F 25.9 °F 30.06 in Calm     91% 0.00 in
20:09 28.0 °F 25.7 °F 30.06 in Calm     91% 0.00 in
20:14 27.8 °F 25.5 °F 30.07 in Calm     91% 0.00 in
20:19 27.6 °F 25.3 °F 30.08 in Calm     91% 0.00 in
20:24 27.4 °F 25.1 °F 30.08 in Calm     91% 0.00 in
20:29 27.3 °F 25.0 °F 30.09 in Calm     91% 0.00 in
20:34 27.2 °F 24.9 °F 30.09 in Calm     91% 0.00 in
20:39 27.3 °F 25.0 °F 30.09 in Calm     91% 0.00 in
20:44 27.4 °F 25.1 °F 30.10 in Calm     91% 0.00 in
20:49 27.5 °F 25.2 °F 30.10 in Calm     91% 0.00 in
20:54 27.7 °F 25.4 °F 30.10 in Calm     91% 0.00 in
20:59 27.9 °F 25.6 °F 30.10 in Calm     91% 0.00 in
21:04 28.0 °F 25.7 °F 30.10 in Calm     91% 0.00 in
21:09 28.1 °F 25.8 °F 30.11 in Calm     91% 0.00 in
21:14 28.3 °F 26.0 °F 30.11 in Calm     91% 0.00 in
21:19 28.3 °F 26.0 °F 30.11 in WNW 3.0 mph 6.0 mph 91% 0.00 in
21:24 28.6 °F 26.6 °F 30.12 in WNW 4.0 mph 6.0 mph 92% 0.00 in
21:29 28.8 °F 26.5 °F 30.12 in WNW 3.0 mph 8.0 mph 91% 0.00 in
21:34 28.8 °F 26.5 °F 30.11 in WNW 3.0 mph 6.0 mph 91% 0.00 in
21:39 28.8 °F 26.5 °F 30.12 in WNW 3.0 mph 6.0 mph 91% 0.00 in
21:44 28.7 °F 26.4 °F 30.12 in WNW 3.0 mph 7.0 mph 91% 0.00 in
21:49 28.7 °F 26.4 °F 30.13 in WNW 3.0 mph 7.0 mph 91% 0.00 in
21:54 28.6 °F 26.3 °F 30.12 in WNW 3.0 mph 8.0 mph 91% 0.00 in
21:59 28.5 °F 26.2 °F 30.13 in WNW 4.0 mph 8.0 mph 91% 0.00 in
22:04 28.3 °F 26.0 °F 30.13 in WNW 4.0 mph 7.0 mph 91% 0.00 in
22:09 28.1 °F 25.8 °F 30.13 in NW 3.0 mph 6.0 mph 91% 0.00 in
22:14 28.0 °F 25.7 °F 30.13 in West 5.0 mph 6.0 mph 91% 0.00 in
22:19 27.8 °F 25.2 °F 30.13 in WNW 2.0 mph 6.0 mph 90% 0.00 in
22:24 27.7 °F 25.2 °F 30.14 in WNW 4.0 mph 8.0 mph 90% 0.00 in
22:29 27.6 °F 25.1 °F 30.14 in WNW 2.0 mph 6.0 mph 90% 0.00 in
22:34 27.5 °F 25.0 °F 30.14 in West 3.0 mph 8.0 mph 90% 0.00 in
22:39 27.5 °F 25.0 °F 30.14 in WNW 1.0 mph 5.0 mph 90% 0.00 in
22:44 27.4 °F 24.9 °F 30.14 in WNW 3.0 mph 6.0 mph 90% 0.00 in
22:49 27.5 °F 25.0 °F 30.14 in WNW 3.0 mph 7.0 mph 90% 0.00 in
22:54 27.5 °F 25.0 °F 30.15 in WNW 3.0 mph 7.0 mph 90% 0.00 in
22:59 27.4 °F 24.9 °F 30.15 in West 3.0 mph 5.0 mph 90% 0.00 in
23:04 27.5 °F 25.0 °F 30.15 in West 2.0 mph 4.0 mph 90% 0.00 in
23:09 27.5 °F 25.0 °F 30.15 in WNW 3.0 mph 5.0 mph 90% 0.00 in
23:14 27.5 °F 24.7 °F 30.15 in West 3.0 mph 6.0 mph 89% 0.00 in
23:19 27.6 °F 24.8 °F 30.15 in West 3.0 mph 6.0 mph 89% 0.00 in
23:24 27.4 °F 24.6 °F 30.15 in West 1.0 mph 7.0 mph 89% 0.00 in
23:29 27.3 °F 24.5 °F 30.15 in West 1.0 mph 5.0 mph 89% 0.00 in
23:34 27.1 °F 24.3 °F 30.15 in West 3.0 mph 3.0 mph 89% 0.00 in
23:39 27.0 °F 24.2 °F 30.15 in West 2.0 mph 5.0 mph 89% 0.00 in
23:44 26.9 °F 24.1 °F 30.15 in WSW 2.0 mph 4.0 mph 89% 0.00 in
23:49 26.8 °F 24.0 °F 30.15 in West 2.0 mph 5.0 mph 89% 0.00 in
23:54 26.8 °F 24.0 °F 30.15 in WSW 2.0 mph 5.0 mph 89% 0.00 in
23:59 26.7 °F 23.6 °F 30.15 in WSW 2.0 mph 4.0 mph 88% 0.00 in
Buffalo, New York, USA
Compliments of Weather Underground - 2.25 mb